Flight Track Log - Related Links

Times and Time Zones

All times are in EDT time to prevent confusion due to time zone crossing. See the N749SS flight status page for this flight to view local times or setup timezone preferences in your user account.

Time Position Orientation Groundspeed Altitude Reporting Facility
EDT Latitude Longitude Course Direction KTS MPH feet Rate Location/Type
Tue 04:26:28 PM 39.1000 -94.6000 228° Southwest 201 231 1,400  Level Kansas City TRACON
Tue 04:27:00 PM 39.0808 -94.6272 228° Southwest 238 274 3,000 3,255 Climbing Kansas City Center
Tue 04:28:02 PM 39.0386 -94.6814 225° Southwest 236 272 6,500 3,774 Climbing Kansas City Center
Tue 04:29:04 PM 38.9583 -94.6619 169° South 262 302 10,800 3,629 Climbing Kansas City Center
Tue 04:30:06 PM 38.8864 -94.6442 169° South 271 312 14,000 2,952 Climbing Kansas City Center
Tue 04:31:08 PM 38.8083 -94.6242 169° South 299 344 16,900 2,758 Climbing Kansas City Center
Tue 04:32:10 PM 38.7114 -94.5997 169° South 316 364 19,700 1,984 Climbing Kansas City Center
Tue 04:33:12 PM 38.6392 -94.5136 137° Southeast 379 436 21,000 1,210 Climbing Kansas City Center
Tue 04:34:14 PM 38.5517 -94.3850 131° Southeast 425 489 22,200 968 Climbing Kansas City Center
Tue 04:35:16 PM 38.4700 -94.2672 132° Southeast 460 529 23,000 387 Climbing Kansas City Center
Tue 04:36:18 PM 38.3692 -94.1211 131° Southeast 487 560 23,000  Level Kansas City Center
Tue 04:37:20 PM 38.2775 -93.9864 131° Southeast 489 563 23,000 194 Level Kansas City Center
Tue 04:38:22 PM 38.1864 -93.8547 131° Southeast 493 567 23,400 484 Climbing Kansas City Center
Tue 04:39:24 PM 38.0931 -93.7242 132° Southeast 497 572 24,000 629 Climbing Kansas City Center
Tue 04:40:26 PM 37.9989 -93.5886 131° Southeast 507 583 24,700 484 Climbing Kansas City Center
Tue 04:41:28 PM 37.9053 -93.4525 131° Southeast 511 588 25,000 629 Climbing Kansas City Center
Tue 04:42:30 PM 37.7911 -93.2906 132° Southeast 514 592 26,000 1,392 Climbing Kansas City Center
Tue 04:43:33 PM 37.6953 -93.1569 132° Southeast 515 593 27,900 1,872 Climbing Kansas City Center
Tue 04:44:35 PM 37.6025 -93.0258 132° Southeast 509 586 29,900 1,887 Climbing Kansas City Center
Tue 04:45:37 PM 37.5086 -92.8950 132° Southeast 506 582 31,800 1,839 Climbing Kansas City Center
Tue 04:46:39 PM 37.4153 -92.7644 132° Southeast 505 581 33,700 2,032 Climbing Kansas City Center
Tue 04:47:41 PM 37.3025 -92.6061 132° Southeast 506 582 36,000 2,081 Climbing Kansas City Center
Tue 04:48:43 PM 37.2081 -92.4758 132° Southeast 507 583 38,000 1,452 Climbing Kansas City Center
Tue 04:49:45 PM 37.1131 -92.3442 132° Southeast 507 583 39,000 484 Climbing Kansas City Center
Tue 04:50:47 PM 37.0147 -92.2103 133° Southeast 514 592 39,000  Level Kansas City Center
Tue 04:51:49 PM 36.9158 -92.0758 133° Southeast 519 597 39,000  Level Kansas City Center
Tue 04:52:51 PM 36.8181 -91.9428 133° Southeast 520 598 39,000  Level Kansas City Center
Tue 04:53:53 PM 36.6986 -91.7825 133° Southeast 523 602 39,000  Level Kansas City Center
Tue 04:54:55 PM 36.5989 -91.6494 133° Southeast 525 604 39,000  Level Kansas City Center
Tue 04:55:57 PM 36.4975 -91.5131 133° Southeast 527 606 39,000  Level Kansas City Center
Tue 04:56:59 PM 36.3953 -91.3783 133° Southeast 528 608 39,000  Level Kansas City Center
Tue 04:58:23 PM 36.2497 -91.1908 134° Southeast 525 604 39,000  Level Memphis Center
Tue 04:59:23 PM 36.1544 -91.0614 132° Southeast 525 604 39,000  Level Memphis Center
Tue 05:00:23 PM 36.0489 -90.9269 134° Southeast 525 604 39,000  Level Memphis Center
Tue 05:01:23 PM 35.9494 -90.7956 133° Southeast 530 610 39,000  Level Memphis Center
Tue 05:02:23 PM 35.8475 -90.6669 134° Southeast 530 610 39,000  Level Memphis Center
Tue 05:03:23 PM 35.7478 -90.5336 133° Southeast 530 610 39,000  Level Memphis Center
Tue 05:04:23 PM 35.6622 -90.4133 131° Southeast 520 598 39,000  Level Memphis Center
Tue 05:05:23 PM 35.5622 -90.2806 133° Southeast 515 593 39,000  Level Memphis Center
Tue 05:06:23 PM 35.4536 -90.1378 133° Southeast 523 602 39,000  Level Memphis Center
Tue 05:07:23 PM 35.3489 -90.0058 134° Southeast 523 602 39,000  Level Memphis Center
Tue 05:08:23 PM 35.2464 -89.8767 134° Southeast 532 612 39,000  Level Memphis Center
Tue 05:09:23 PM 35.1456 -89.7450 133° Southeast 527 606 39,000  Level Memphis Center
Tue 05:10:23 PM 35.0425 -89.6114 133° Southeast 527 606 39,000  Level Memphis Center
Tue 05:11:23 PM 34.9481 -89.4906 134° Southeast 532 612 39,000  Level Memphis Center
Tue 05:12:23 PM 34.8428 -89.3653 136° Southeast 532 612 39,000  Level Memphis Center
Tue 05:13:23 PM 34.7394 -89.2400 135° Southeast 532 612 39,000  Level Memphis Center
Tue 05:14:23 PM 34.6358 -89.1128 135° Southeast 526 605 39,000  Level Memphis Center
Tue 05:15:23 PM 34.5322 -88.9831 134° Southeast 526 605 39,000  Level Memphis Center
Tue 05:16:23 PM 34.4200 -88.8439 134° Southeast 526 605 39,000  Level Memphis Center
Tue 05:17:23 PM 34.3269 -88.7375 137° Southeast 519 597 39,000  Level Memphis Center
Tue 05:18:23 PM 34.2250 -88.6089 134° Southeast 519 597 39,000  Level Memphis Center
Tue 05:19:23 PM 34.1189 -88.4831 136° Southeast 526 605 39,000  Level Memphis Center
Tue 05:20:23 PM 34.0167 -88.3550 134° Southeast 526 605 39,000  Level Memphis Center
Tue 05:22:09 PM 33.8308 -88.1275 134° Southeast 526 605 39,000  Level Atlanta Center
Tue 05:23:09 PM 33.7264 -88.0025 135° Southeast 526 605 39,000  Level Atlanta Center
Tue 05:24:09 PM 33.6197 -87.8753 135° Southeast 531 611 39,000  Level Atlanta Center
Tue 05:25:09 PM 33.5150 -87.7486 135° Southeast 531 611 39,000  Level Atlanta Center
Tue 05:26:09 PM 33.4103 -87.6247 135° Southeast 531 611 39,000  Level Atlanta Center
Tue 05:27:09 PM 33.3053 -87.4961 134° Southeast 531 611 39,000  Level Atlanta Center
Tue 05:28:09 PM 33.2003 -87.3703 135° Southeast 531 611 39,000  Level Atlanta Center
Tue 05:29:09 PM 33.0908 -87.2447 136° Southeast 536 617 39,000  Level Atlanta Center
Tue 05:30:09 PM 32.9775 -87.1117 135° Southeast 536 617 39,000  Level Atlanta Center
Tue 05:31:09 PM 32.8719 -86.9869 135° Southeast 536 617 39,000  Level Atlanta Center
Tue 05:32:09 PM 32.7664 -86.8622 135° Southeast 536 617 39,000  Level Atlanta Center
Tue 05:33:09 PM 32.6628 -86.7356 134° Southeast 536 617 39,000  Level Atlanta Center
Tue 05:34:09 PM 32.5525 -86.6139 137° Southeast 536 617 39,000  Level Atlanta Center
Tue 05:35:09 PM 32.4486 -86.4928 135° Southeast 536 617 39,000  Level Atlanta Center
Tue 05:36:09 PM 32.3442 -86.3817 138° Southeast 535 616 39,000  Level Atlanta Center
Tue 05:37:09 PM 32.2403 -86.2564 134° Southeast 546 628 39,000  Level Atlanta Center
Tue 05:38:09 PM 32.1256 -86.1211 135° Southeast 538 619 39,000  Level Atlanta Center
Tue 05:39:09 PM 32.0211 -86.0108 138° Southeast 549 632 39,000  Level Atlanta Center
Tue 05:42:30 PM 31.6575 -85.5969 136° Southeast 540 621 39,000  Level Jacksonville Center
Tue 05:43:30 PM 31.5494 -85.4742 136° Southeast 540 621 39,000  Level Jacksonville Center
Tue 05:44:30 PM 31.4392 -85.3519 137° Southeast 540 621 39,000  Level Jacksonville Center
Tue 05:45:30 PM 31.3228 -85.2150 135° Southeast 559 643 39,000  Level Jacksonville Center
Tue 05:46:30 PM 31.2242 -85.1131 139° Southeast 551 634 39,000  Level Jacksonville Center
Tue 05:47:30 PM 31.1069 -85.0083 143° Southeast 544 626 39,000  Level Jacksonville Center
Tue 05:48:30 PM 30.9667 -84.9181 151° Southeast 530 610 39,000  Level Jacksonville Center
Tue 05:49:30 PM 30.8361 -84.8403 153° Southeast 524 603 39,000  Level Jacksonville Center
Tue 05:50:30 PM 30.7036 -84.7650 154° Southeast 524 603 39,000  Level Jacksonville Center
Tue 05:51:30 PM 30.5900 -84.6953 152° Southeast 524 603 39,000  Level Jacksonville Center
Tue 05:52:30 PM 30.4594 -84.6181 153° Southeast 524 603 39,000  Level Jacksonville Center
Tue 05:53:30 PM 30.3247 -84.5411 154° Southeast 524 603 39,000  Level Jacksonville Center
Tue 05:54:30 PM 30.1942 -84.4644 153° Southeast 524 603 39,000  Level Jacksonville Center
Tue 05:55:30 PM 30.0656 -84.3878 153° Southeast 524 603 39,000  Level Jacksonville Center
Tue 05:56:30 PM 29.9350 -84.3114 153° Southeast 530 610 39,000  Level Jacksonville Center
Tue 05:57:30 PM 29.8022 -84.2353 154° Southeast 525 604 39,000  Level Jacksonville Center
Tue 05:58:30 PM 29.6611 -84.1592 155° Southeast 525 604 39,000  Level Jacksonville Center
Tue 05:59:30 PM 29.5303 -84.0811 153° Southeast 525 604 39,000  Level Jacksonville Center
Tue 06:00:30 PM 29.3994 -84.0058 153° Southeast 525 604 39,000  Level Jacksonville Center
Tue 06:01:30 PM 29.2811 -83.9378 153° Southeast 530 610 39,000  Level Jacksonville Center
Tue 06:02:30 PM 29.1500 -83.8603 153° Southeast 530 610 39,000  Level Jacksonville Center
Tue 06:03:30 PM 29.0192 -83.7878 154° Southeast 530 610 39,000 -50 Level Jacksonville Center
Tue 06:04:30 PM 28.8881 -83.7106 153° Southeast 530 610 38,900 -550 Descending Jacksonville Center
Tue 06:05:30 PM 28.7572 -83.6386 154° Southeast 525 604 37,900 -987 Descending Jacksonville Center
Tue 06:07:02 PM 28.5403 -83.5139 153° Southeast 532 612 36,400 -987 Descending Miami Center
Tue 06:08:02 PM 28.4083 -83.4378 153° Southeast 538 619 35,400 -700 Descending Miami Center
Tue 06:09:02 PM 28.2739 -83.3708 156° South 535 616 35,000 -200 Descending Miami Center
Tue 06:10:02 PM 28.1258 -83.3694 180° South 513 590 35,000  Level Miami Center
Tue 06:11:02 PM 27.9936 -83.2936 153° Southeast 520 598 35,000 -350 Level Miami Center
Tue 06:12:02 PM 27.8706 -83.2044 147° Southeast 525 604 34,300 -1,150 Descending Miami Center
Tue 06:13:02 PM 27.7450 -83.1178 149° Southeast 525 604 32,700 -2,050 Descending Miami Center
Tue 06:14:02 PM 27.6233 -83.0364 149° Southeast 519 597 30,200 -2,500 Descending Miami Center
Tue 06:15:02 PM 27.4997 -82.9525 149° Southeast 519 597 27,700 -2,450 Descending Miami Center
Tue 06:16:02 PM 27.3819 -82.8714 149° Southeast 513 590 25,300 -2,200 Descending Miami Center
Tue 06:17:02 PM 27.2867 -82.8081 149° Southeast 508 585 23,300 -2,450 Descending Miami Center
Tue 06:18:02 PM 27.1586 -82.7244 150° Southeast 501 577 20,400 -2,700 Descending Miami Center
Tue 06:19:02 PM 27.0450 -82.6464 149° Southeast 485 558 17,900 -2,350 Descending Miami Center
Tue 06:20:02 PM 26.9392 -82.5761 149° Southeast 472 543 15,700 -2,300 Descending Miami Center
Tue 06:21:02 PM 26.8333 -82.5056 149° Southeast 447 514 13,300 -2,600 Descending Miami Center
Tue 06:22:02 PM 26.7256 -82.4331 149° Southeast 420 483 10,500 -1,650 Descending Miami Center
Tue 06:23:02 PM 26.6300 -82.3706 150° Southeast 404 465 10,000 -250 Descending Miami Center
Tue 06:24:02 PM 26.5344 -82.3011 147° Southeast 404 465 10,000  Level Miami Center
Tue 06:25:02 PM 26.4408 -82.2364 148° Southeast 410 472 10,000  Level Miami Center
Tue 06:26:02 PM 26.3492 -82.1697 147° Southeast 398 458 10,000 -450 Level Miami Center
Tue 06:27:02 PM 26.2783 -82.1133 144° Southeast 348 400 9,100 -1,400 Descending Miami Center
Tue 06:28:02 PM 26.2089 -82.0664 149° Southeast 300 345 7,200 -1,900 Descending Miami Center
Tue 06:29:02 PM 26.1458 -82.0197 146° Southeast 283 326 5,300 -1,900 Descending Miami Center
Tue 06:31:00 PM 26.1450 -81.7793 66° East  Level FlightAware Approximate
Tue 06:38:00 PM 26.1500 -81.7667 66° East  Level FlightAware Approximate
Tue 06:39:00 PM 26.1524 -81.7756 66° East  Level Estimated
Tue 06:40:00 PM 26.1524 -81.7756 66° East  Level Estimated
Tue 06:41:00 PM 26.1524 -81.7756 66° East  Level Estimated
Tue 06:42:00 PM 26.1524 -81.7756 66° East  Level Estimated

Login

Don't have an account? Register now (free) for customized features, flight alerts, and more!